Fogo, Canada
Current Conditions -  °F | °C
As of 10:35 AM on Friday 19 Dec 2014 (Local Time) from CYQX Reporting Station
Haze Haze  
Wind Chill: 29°   Ceiling: 300
Heat Index: 37°   Visibility: 5mi
Dew Point: 37°   Wind: 15mph
Humidity: 100%   Direction: 220°SW
Pressure: 29.25"   Gusts: NA
Location:  49.7°N, 54.28°W
Report Text: CYQX 191335Z 22013KT 5SM BR BKN003 OVC009 03/03 A2925 RMK SF6SF2 SLP911
Loading
Personal Weather Stations






























Interactive Weather Map New forecast layout! Learn more

10-Day Weather Forecast

Advertisements
Track Severe Weather on mobile